sensor_id;sensor_type;location;lat;lon;timestamp;pressure;altitude;pressure_sealevel;temperature;humidity
30554;BME280;17335;50.720;7.452;2024-03-08T00:00:10;99368.66;;;1.73;100.00
30554;BME280;17335;50.720;7.452;2024-03-08T00:02:41;99364.53;;;1.83;100.00
30554;BME280;17335;50.720;7.452;2024-03-08T00:05:08;99363.09;;;1.78;100.00
30554;BME280;17335;50.720;7.452;2024-03-08T00:07:36;99353.66;;;1.74;100.00
30554;BME280;17335;50.720;7.452;2024-03-08T00:10:03;99358.66;;;1.78;100.00
30554;BME280;17335;50.720;7.452;2024-03-08T00:12:30;99356.00;;;1.78;100.00
30554;BME280;17335;50.720;7.452;2024-03-08T00:14:57;99353.78;;;1.86;100.00
30554;BME280;17335;50.720;7.452;2024-03-08T00:17:23;99346.97;;;1.82;100.00
30554;BME280;17335;50.720;7.452;2024-03-08T00:19:50;99345.13;;;1.68;100.00
30554;BME280;17335;50.720;7.452;2024-03-08T00:22:17;99349.94;;;1.76;100.00
30554;BME280;17335;50.720;7.452;2024-03-08T00:24:43;99353.28;;;1.80;100.00
30554;BME280;17335;50.720;7.452;2024-03-08T00:27:10;99350.72;;;1.78;100.00
30554;BME280;17335;50.720;7.452;2024-03-08T00:29:37;99342.78;;;1.78;100.00
30554;BME280;17335;50.720;7.452;2024-03-08T00:32:05;99349.03;;;1.61;100.00
30554;BME280;17335;50.720;7.452;2024-03-08T00:34:31;99340.50;;;1.72;100.00
30554;BME280;17335;50.720;7.452;2024-03-08T00:36:58;99349.09;;;1.76;100.00
30554;BME280;17335;50.720;7.452;2024-03-08T00:39:25;99335.72;;;1.63;100.00
30554;BME280;17335;50.720;7.452;2024-03-08T00:41:51;99340.91;;;1.64;100.00
30554;BME280;17335;50.720;7.452;2024-03-08T00:44:18;99331.38;;;1.62;100.00
30554;BME280;17335;50.720;7.452;2024-03-08T00:46:45;99338.91;;;1.54;100.00
30554;BME280;17335;50.720;7.452;2024-03-08T00:49:11;99342.66;;;1.49;100.00
30554;BME280;17335;50.720;7.452;2024-03-08T00:51:38;99335.22;;;1.56;100.00
30554;BME280;17335;50.720;7.452;2024-03-08T00:54:05;99323.06;;;1.68;100.00
30554;BME280;17335;50.720;7.452;2024-03-08T00:56:32;99330.97;;;1.54;100.00
30554;BME280;17335;50.720;7.452;2024-03-08T00:59:00;99327.34;;;1.55;100.00
30554;BME280;17335;50.720;7.452;2024-03-08T01:01:26;99321.56;;;1.64;100.00
30554;BME280;17335;50.720;7.452;2024-03-08T01:03:53;99324.84;;;1.53;100.00
30554;BME280;17335;50.720;7.452;2024-03-08T01:06:19;99327.88;;;1.61;100.00
30554;BME280;17335;50.720;7.452;2024-03-08T01:08:46;99316.25;;;1.64;100.00
30554;BME280;17335;50.720;7.452;2024-03-08T01:11:13;99311.41;;;1.56;100.00
30554;BME280;17335;50.720;7.452;2024-03-08T01:13:40;99301.28;;;1.48;100.00
30554;BME280;17335;50.720;7.452;2024-03-08T01:16:07;99302.69;;;1.54;100.00
30554;BME280;17335;50.720;7.452;2024-03-08T01:18:33;99291.88;;;1.59;100.00
30554;BME280;17335;50.720;7.452;2024-03-08T01:21:00;99292.75;;;1.43;100.00
30554;BME280;17335;50.720;7.452;2024-03-08T01:23:27;99282.50;;;1.53;100.00
30554;BME280;17335;50.720;7.452;2024-03-08T01:25:53;99285.72;;;1.58;100.00
30554;BME280;17335;50.720;7.452;2024-03-08T01:28:26;99289.06;;;1.46;100.00
30554;BME280;17335;50.720;7.452;2024-03-08T01:30:52;99284.56;;;1.48;100.00
30554;BME280;17335;50.720;7.452;2024-03-08T01:33:23;99283.69;;;1.47;100.00
30554;BME280;17335;50.720;7.452;2024-03-08T01:35:54;99273.59;;;1.54;100.00
30554;BME280;17335;50.720;7.452;2024-03-08T01:38:21;99265.41;;;1.59;100.00
30554;BME280;17335;50.720;7.452;2024-03-08T01:40:48;99267.56;;;1.52;100.00
30554;BME280;17335;50.720;7.452;2024-03-08T01:43:17;99265.09;;;1.49;100.00
30554;BME280;17335;50.720;7.452;2024-03-08T01:45:44;99257.22;;;1.47;100.00
30554;BME280;17335;50.720;7.452;2024-03-08T01:48:10;99260.75;;;1.48;100.00
30554;BME280;17335;50.720;7.452;2024-03-08T01:50:38;99264.16;;;1.50;100.00
30554;BME280;17335;50.720;7.452;2024-03-08T01:53:06;99259.13;;;1.45;100.00
30554;BME280;17335;50.720;7.452;2024-03-08T01:55:33;99247.69;;;1.45;100.00
30554;BME280;17335;50.720;7.452;2024-03-08T01:58:06;99248.53;;;1.45;100.00
30554;BME280;17335;50.720;7.452;2024-03-08T02:00:34;99246.81;;;1.44;100.00
30554;BME280;17335;50.720;7.452;2024-03-08T02:03:01;99242.22;;;1.48;100.00
30554;BME280;17335;50.720;7.452;2024-03-08T02:05:28;99242.66;;;1.40;100.00
30554;BME280;17335;50.720;7.452;2024-03-08T02:07:54;99234.66;;;1.42;100.00
30554;BME280;17335;50.720;7.452;2024-03-08T02:10:21;99235.41;;;1.44;100.00
30554;BME280;17335;50.720;7.452;2024-03-08T02:12:48;99234.91;;;1.37;100.00
30554;BME280;17335;50.720;7.452;2024-03-08T02:15:15;99241.34;;;1.47;100.00
30554;BME280;17335;50.720;7.452;2024-03-08T02:17:41;99233.47;;;1.31;100.00
30554;BME280;17335;50.720;7.452;2024-03-08T02:20:08;99237.63;;;1.36;100.00
30554;BME280;17335;50.720;7.452;2024-03-08T02:22:36;99228.72;;;1.22;100.00
30554;BME280;17335;50.720;7.452;2024-03-08T02:25:03;99225.38;;;1.35;100.00
30554;BME280;17335;50.720;7.452;2024-03-08T02:31:18;99221.47;;;1.26;100.00
30554;BME280;17335;50.720;7.452;2024-03-08T02:33:45;99213.16;;;1.32;100.00
30554;BME280;17335;50.720;7.452;2024-03-08T02:36:14;99212.28;;;1.17;100.00
30554;BME280;17335;50.720;7.452;2024-03-08T02:38:40;99208.34;;;1.24;100.00
30554;BME280;17335;50.720;7.452;2024-03-08T02:41:07;99210.81;;;1.27;100.00
30554;BME280;17335;50.720;7.452;2024-03-08T02:43:35;99215.44;;;1.24;100.00
30554;BME280;17335;50.720;7.452;2024-03-08T02:46:01;99218.56;;;1.15;100.00
30554;BME280;17335;50.720;7.452;2024-03-08T02:48:27;99209.38;;;1.06;100.00
30554;BME280;17335;50.720;7.452;2024-03-08T02:50:54;99202.03;;;1.11;100.00
30554;BME280;17335;50.720;7.452;2024-03-08T02:53:20;99201.38;;;1.07;100.00
30554;BME280;17335;50.720;7.452;2024-03-08T02:55:48;99200.44;;;1.08;100.00
30554;BME280;17335;50.720;7.452;2024-03-08T02:58:14;99198.38;;;1.14;100.00
30554;BME280;17335;50.720;7.452;2024-03-08T03:00:41;99200.53;;;1.07;100.00
30554;BME280;17335;50.720;7.452;2024-03-08T03:03:08;99196.34;;;1.03;100.00
30554;BME280;17335;50.720;7.452;2024-03-08T03:05:35;99199.69;;;0.90;100.00
30554;BME280;17335;50.720;7.452;2024-03-08T03:08:02;99206.34;;;0.82;100.00
30554;BME280;17335;50.720;7.452;2024-03-08T03:10:30;99204.84;;;0.78;100.00
30554;BME280;17335;50.720;7.452;2024-03-08T03:12:57;99199.72;;;0.74;100.00
30554;BME280;17335;50.720;7.452;2024-03-08T03:15:24;99204.91;;;0.76;100.00
30554;BME280;17335;50.720;7.452;2024-03-08T03:17:53;99198.69;;;0.77;100.00
30554;BME280;17335;50.720;7.452;2024-03-08T03:20:20;99196.47;;;0.85;100.00
30554;BME280;17335;50.720;7.452;2024-03-08T03:22:53;99198.44;;;0.82;100.00
30554;BME280;17335;50.720;7.452;2024-03-08T03:25:20;99195.25;;;0.91;100.00
30554;BME280;17335;50.720;7.452;2024-03-08T03:27:55;99188.41;;;1.03;100.00
30554;BME280;17335;50.720;7.452;2024-03-08T03:30:24;99186.91;;;0.99;100.00
30554;BME280;17335;50.720;7.452;2024-03-08T03:32:53;99188.44;;;0.87;100.00
30554;BME280;17335;50.720;7.452;2024-03-08T03:35:21;99191.84;;;0.89;100.00
30554;BME280;17335;50.720;7.452;2024-03-08T03:37:49;99193.72;;;0.87;100.00
30554;BME280;17335;50.720;7.452;2024-03-08T03:40:28;99185.97;;;0.84;100.00
30554;BME280;17335;50.720;7.452;2024-03-08T03:42:55;99188.78;;;0.81;100.00
30554;BME280;17335;50.720;7.452;2024-03-08T03:45:25;99182.81;;;0.93;100.00
30554;BME280;17335;50.720;7.452;2024-03-08T03:47:52;99173.75;;;0.97;100.00
30554;BME280;17335;50.720;7.452;2024-03-08T03:50:19;99166.25;;;1.05;100.00
30554;BME280;17335;50.720;7.452;2024-03-08T03:52:47;99175.09;;;1.04;100.00
30554;BME280;17335;50.720;7.452;2024-03-08T03:55:14;99173.22;;;1.06;100.00
30554;BME280;17335;50.720;7.452;2024-03-08T03:57:41;99175.09;;;1.04;100.00
30554;BME280;17335;50.720;7.452;2024-03-08T04:00:08;99171.38;;;1.08;100.00
30554;BME280;17335;50.720;7.452;2024-03-08T04:02:40;99169.75;;;1.06;100.00
30554;BME280;17335;50.720;7.452;2024-03-08T04:05:08;99162.84;;;1.03;100.00
30554;BME280;17335;50.720;7.452;2024-03-08T04:07:36;99151.69;;;0.98;100.00
30554;BME280;17335;50.720;7.452;2024-03-08T04:10:05;99154.91;;;1.03;100.00
30554;BME280;17335;50.720;7.452;2024-03-08T04:12:35;99159.84;;;1.09;100.00
30554;BME280;17335;50.720;7.452;2024-03-08T04:15:02;99155.75;;;1.04;100.00
30554;BME280;17335;50.720;7.452;2024-03-08T04:17:28;99158.84;;;0.96;100.00
30554;BME280;17335;50.720;7.452;2024-03-08T04:19:55;99152.53;;;0.99;100.00
30554;BME280;17335;50.720;7.452;2024-03-08T04:22:22;99156.56;;;0.90;100.00
30554;BME280;17335;50.720;7.452;2024-03-08T04:24:48;99149.56;;;0.89;100.00
30554;BME280;17335;50.720;7.452;2024-03-08T04:27:15;99157.91;;;0.97;100.00
30554;BME280;17335;50.720;7.452;2024-03-08T04:29:41;99150.09;;;0.80;100.00
30554;BME280;17335;50.720;7.452;2024-03-08T04:32:09;99155.56;;;0.77;100.00
30554;BME280;17335;50.720;7.452;2024-03-08T04:34:36;99153.84;;;0.75;100.00
30554;BME280;17335;50.720;7.452;2024-03-08T04:37:02;99150.28;;;0.77;100.00
30554;BME280;17335;50.720;7.452;2024-03-08T04:39:31;99151.69;;;0.82;100.00
30554;BME280;17335;50.720;7.452;2024-03-08T04:41:59;99146.50;;;0.81;100.00
30554;BME280;17335;50.720;7.452;2024-03-08T04:44:31;99145.84;;;0.77;100.00
30554;BME280;17335;50.720;7.452;2024-03-08T04:46:58;99147.47;;;0.80;100.00
30554;BME280;17335;50.720;7.452;2024-03-08T04:49:24;99136.72;;;0.83;100.00
30554;BME280;17335;50.720;7.452;2024-03-08T04:51:51;99147.47;;;0.80;100.00
30554;BME280;17335;50.720;7.452;2024-03-08T04:54:17;99146.53;;;0.65;100.00
30554;BME280;17335;50.720;7.452;2024-03-08T04:56:44;99140.16;;;0.69;100.00
30554;BME280;17335;50.720;7.452;2024-03-08T04:59:10;99137.09;;;0.61;100.00
30554;BME280;17335;50.720;7.452;2024-03-08T05:01:37;99141.50;;;0.60;100.00
30554;BME280;17335;50.720;7.452;2024-03-08T05:04:04;99126.59;;;0.59;100.00
30554;BME280;17335;50.720;7.452;2024-03-08T05:06:35;99129.75;;;0.66;100.00
30554;BME280;17335;50.720;7.452;2024-03-08T05:09:02;99117.56;;;0.63;100.00
30554;BME280;17335;50.720;7.452;2024-03-08T05:11:43;99118.00;;;0.55;100.00
30554;BME280;17335;50.720;7.452;2024-03-08T05:14:14;99122.84;;;0.63;100.00
30554;BME280;17335;50.720;7.452;2024-03-08T05:16:46;99128.56;;;0.55;100.00
30554;BME280;17335;50.720;7.452;2024-03-08T05:19:16;99111.94;;;0.69;100.00
30554;BME280;17335;50.720;7.452;2024-03-08T05:21:46;99106.81;;;0.66;100.00
30554;BME280;17335;50.720;7.452;2024-03-08T05:24:14;99111.59;;;0.60;100.00
30554;BME280;17335;50.720;7.452;2024-03-08T05:26:42;99111.78;;;0.56;100.00
30554;BME280;17335;50.720;7.452;2024-03-08T05:29:09;99116.38;;;0.69;100.00
30554;BME280;17335;50.720;7.452;2024-03-08T05:31:39;99113.75;;;0.53;100.00
30554;BME280;17335;50.720;7.452;2024-03-08T05:34:09;99111.00;;;0.54;100.00
30554;BME280;17335;50.720;7.452;2024-03-08T05:36:36;99114.31;;;0.58;100.00
30554;BME280;17335;50.720;7.452;2024-03-08T05:39:03;99109.63;;;0.63;100.00
30554;BME280;17335;50.720;7.452;2024-03-08T05:41:32;99107.41;;;0.71;100.00
30554;BME280;17335;50.720;7.452;2024-03-08T05:43:59;99110.22;;;0.68;100.00
30554;BME280;17335;50.720;7.452;2024-03-08T05:46:25;99110.59;;;0.62;100.00
30554;BME280;17335;50.720;7.452;2024-03-08T05:48:51;99105.47;;;0.59;100.00
30554;BME280;17335;50.720;7.452;2024-03-08T05:51:19;99096.78;;;0.57;100.00
30554;BME280;17335;50.720;7.452;2024-03-08T05:53:47;99101.03;;;0.60;100.00
30554;BME280;17335;50.720;7.452;2024-03-08T05:56:14;99097.00;;;0.68;100.00
30554;BME280;17335;50.720;7.452;2024-03-08T05:58:40;99091.31;;;0.60;100.00
30554;BME280;17335;50.720;7.452;2024-03-08T06:01:06;99101.00;;;0.75;100.00
30554;BME280;17335;50.720;7.452;2024-03-08T06:03:34;99102.38;;;0.67;100.00
30554;BME280;17335;50.720;7.452;2024-03-08T06:06:00;99094.97;;;0.73;100.00
30554;BME280;17335;50.720;7.452;2024-03-08T06:08:27;99094.28;;;0.70;100.00
30554;BME280;17335;50.720;7.452;2024-03-08T06:10:56;99094.28;;;0.70;100.00
30554;BME280;17335;50.720;7.452;2024-03-08T06:13:22;99095.13;;;0.70;100.00
30554;BME280;17335;50.720;7.452;2024-03-08T06:15:51;99095.72;;;0.75;100.00
30554;BME280;17335;50.720;7.452;2024-03-08T06:18:18;99091.13;;;0.79;100.00
30554;BME280;17335;50.720;7.452;2024-03-08T06:20:44;99097.50;;;0.75;100.00
30554;BME280;17335;50.720;7.452;2024-03-08T06:23:12;99089.59;;;0.75;100.00
30554;BME280;17335;50.720;7.452;2024-03-08T06:25:39;99087.19;;;0.70;100.00
30554;BME280;17335;50.720;7.452;2024-03-08T06:28:05;99084.47;;;0.72;100.00
30554;BME280;17335;50.720;7.452;2024-03-08T06:30:32;99088.34;;;0.66;100.00
30554;BME280;17335;50.720;7.452;2024-03-08T06:32:58;99088.56;;;0.78;100.00
30554;BME280;17335;50.720;7.452;2024-03-08T06:35:25;99087.63;;;0.79;100.00
30554;BME280;17335;50.720;7.452;2024-03-08T06:37:51;99084.63;;;0.85;100.00
30554;BME280;17335;50.720;7.452;2024-03-08T06:40:18;99083.00;;;0.82;100.00
30554;BME280;17335;50.720;7.452;2024-03-08T06:42:44;99079.03;;;0.75;100.00
30554;BME280;17335;50.720;7.452;2024-03-08T06:45:11;99081.97;;;0.85;100.00
30554;BME280;17335;50.720;7.452;2024-03-08T06:47:39;99076.41;;;0.89;100.00
30554;BME280;17335;50.720;7.452;2024-03-08T06:50:08;99075.06;;;0.82;100.00
30554;BME280;17335;50.720;7.452;2024-03-08T06:52:34;99075.38;;;0.92;100.00
30554;BME280;17335;50.720;7.452;2024-03-08T06:55:01;99084.25;;;0.91;100.00
30554;BME280;17335;50.720;7.452;2024-03-08T06:57:28;99071.94;;;1.06;100.00
30554;BME280;17335;50.720;7.452;2024-03-08T06:59:55;99076.06;;;1.10;100.00
30554;BME280;17335;50.720;7.452;2024-03-08T07:02:23;99085.31;;;1.03;100.00
30554;BME280;17335;50.720;7.452;2024-03-08T07:04:52;99081.00;;;1.16;100.00
30554;BME280;17335;50.720;7.452;2024-03-08T07:07:19;99073.75;;;1.34;100.00
30554;BME280;17335;50.720;7.452;2024-03-08T07:09:48;99080.41;;;1.41;100.00
30554;BME280;17335;50.720;7.452;2024-03-08T07:12:15;99078.69;;;1.40;100.00
30554;BME280;17335;50.720;7.452;2024-03-08T07:14:42;99070.94;;;1.37;100.00
30554;BME280;17335;50.720;7.452;2024-03-08T07:17:12;99072.25;;;1.44;100.00
30554;BME280;17335;50.720;7.452;2024-03-08T07:19:38;99070.47;;;1.59;100.00
30554;BME280;17335;50.720;7.452;2024-03-08T07:22:05;99070.84;;;1.67;100.00
30554;BME280;17335;50.720;7.452;2024-03-08T07:24:35;99073.78;;;1.77;100.00
30554;BME280;17335;50.720;7.452;2024-03-08T07:27:04;99075.66;;;1.90;100.00
30554;BME280;17335;50.720;7.452;2024-03-08T07:29:32;99065.63;;;1.95;100.00
30554;BME280;17335;50.720;7.452;2024-03-08T07:32:00;99062.88;;;1.96;100.00
30554;BME280;17335;50.720;7.452;2024-03-08T07:34:27;99056.53;;;1.99;100.00
30554;BME280;17335;50.720;7.452;2024-03-08T07:36:53;99054.16;;;2.09;100.00
30554;BME280;17335;50.720;7.452;2024-03-08T07:39:20;99050.44;;;2.11;100.00
30554;BME280;17335;50.720;7.452;2024-03-08T07:41:47;99047.31;;;2.19;100.00
30554;BME280;17335;50.720;7.452;2024-03-08T07:44:14;99039.84;;;2.25;100.00
30554;BME280;17335;50.720;7.452;2024-03-08T07:46:40;99045.06;;;2.40;100.00
30554;BME280;17335;50.720;7.452;2024-03-08T07:49:08;99042.50;;;2.38;100.00
30554;BME280;17335;50.720;7.452;2024-03-08T07:51:38;99030.81;;;2.55;100.00
30554;BME280;17335;50.720;7.452;2024-03-08T07:54:04;99030.41;;;2.61;100.00
30554;BME280;17335;50.720;7.452;2024-03-08T07:56:31;99025.13;;;2.74;100.00
30554;BME280;17335;50.720;7.452;2024-03-08T07:58:58;99028.13;;;2.83;100.00
30554;BME280;17335;50.720;7.452;2024-03-08T08:01:24;99019.09;;;2.85;100.00
30554;BME280;17335;50.720;7.452;2024-03-08T08:03:51;99011.28;;;2.96;100.00
30554;BME280;17335;50.720;7.452;2024-03-08T08:06:17;99015.94;;;3.06;100.00
30554;BME280;17335;50.720;7.452;2024-03-08T08:08:44;99009.03;;;3.16;100.00
30554;BME280;17335;50.720;7.452;2024-03-08T08:11:11;99005.44;;;3.30;100.00
30554;BME280;17335;50.720;7.452;2024-03-08T08:13:37;98998.75;;;3.37;100.00
30554;BME280;17335;50.720;7.452;2024-03-08T08:16:05;99000.66;;;3.48;100.00
30554;BME280;17335;50.720;7.452;2024-03-08T08:18:34;98993.63;;;3.47;100.00
30554;BME280;17335;50.720;7.452;2024-03-08T08:21:04;98998.22;;;3.45;100.00
30554;BME280;17335;50.720;7.452;2024-03-08T08:23:32;98982.34;;;3.69;100.00
30554;BME280;17335;50.720;7.452;2024-03-08T08:25:59;98984.00;;;3.83;100.00
30554;BME280;17335;50.720;7.452;2024-03-08T08:28:25;98966.03;;;3.86;100.00
30554;BME280;17335;50.720;7.452;2024-03-08T08:30:52;98974.19;;;3.96;100.00
30554;BME280;17335;50.720;7.452;2024-03-08T08:33:18;98971.72;;;4.06;100.00
30554;BME280;17335;50.720;7.452;2024-03-08T08:35:45;98969.91;;;4.06;100.00
30554;BME280;17335;50.720;7.452;2024-03-08T08:38:14;98968.78;;;4.22;100.00
30554;BME280;17335;50.720;7.452;2024-03-08T08:40:40;98955.78;;;4.30;100.00
30554;BME280;17335;50.720;7.452;2024-03-08T08:43:07;98955.28;;;4.36;100.00
30554;BME280;17335;50.720;7.452;2024-03-08T08:45:34;98958.69;;;4.38;100.00
30554;BME280;17335;50.720;7.452;2024-03-08T08:48:00;98948.09;;;4.49;100.00
30554;BME280;17335;50.720;7.452;2024-03-08T08:50:27;98943.06;;;4.58;100.00
30554;BME280;17335;50.720;7.452;2024-03-08T08:52:55;98944.50;;;4.62;100.00
30554;BME280;17335;50.720;7.452;2024-03-08T08:55:22;98938.03;;;4.77;100.00
30554;BME280;17335;50.720;7.452;2024-03-08T08:57:52;98940.94;;;4.85;100.00
30554;BME280;17335;50.720;7.452;2024-03-08T09:00:19;98923.06;;;4.87;100.00
30554;BME280;17335;50.720;7.452;2024-03-08T09:02:46;98923.06;;;4.87;100.00
30554;BME280;17335;50.720;7.452;2024-03-08T09:05:14;98935.88;;;4.94;100.00
30554;BME280;17335;50.720;7.452;2024-03-08T09:07:46;98923.28;;;5.07;100.00
30554;BME280;17335;50.720;7.452;2024-03-08T09:10:12;98933.00;;;5.19;100.00
30554;BME280;17335;50.720;7.452;2024-03-08T09:12:43;98910.59;;;5.22;100.00
30554;BME280;17335;50.720;7.452;2024-03-08T09:15:10;98920.88;;;5.15;100.00
30554;BME280;17335;50.720;7.452;2024-03-08T09:17:40;98923.44;;;5.17;100.00
30554;BME280;17335;50.720;7.452;2024-03-08T09:20:08;98910.97;;;5.17;100.00
30554;BME280;17335;50.720;7.452;2024-03-08T09:22:35;98920.06;;;5.26;100.00
30554;BME280;17335;50.720;7.452;2024-03-08T09:25:02;98901.28;;;5.39;100.00
30554;BME280;17335;50.720;7.452;2024-03-08T09:27:31;98922.09;;;5.34;100.00
30554;BME280;17335;50.720;7.452;2024-03-08T09:29:57;98906.25;;;5.43;100.00
30554;BME280;17335;50.720;7.452;2024-03-08T09:32:24;98910.59;;;5.44;100.00
30554;BME280;17335;50.720;7.452;2024-03-08T09:34:50;98909.75;;;5.55;100.00
30554;BME280;17335;50.720;7.452;2024-03-08T09:37:17;98906.69;;;5.60;100.00
30554;BME280;17335;50.720;7.452;2024-03-08T09:39:43;98891.31;;;5.63;100.00
30554;BME280;17335;50.720;7.452;2024-03-08T09:42:11;98885.50;;;5.70;100.00
30554;BME280;17335;50.720;7.452;2024-03-08T09:44:45;98887.06;;;5.72;100.00
30554;BME280;17335;50.720;7.452;2024-03-08T09:47:15;98873.97;;;5.80;100.00
30554;BME280;17335;50.720;7.452;2024-03-08T09:49:42;98867.75;;;5.91;100.00
30554;BME280;17335;50.720;7.452;2024-03-08T09:52:10;98873.47;;;5.87;100.00
30554;BME280;17335;50.720;7.452;2024-03-08T09:54:37;98866.66;;;5.94;100.00
30554;BME280;17335;50.720;7.452;2024-03-08T09:57:06;98865.31;;;5.99;100.00
30554;BME280;17335;50.720;7.452;2024-03-08T09:59:35;98855.72;;;6.08;100.00
30554;BME280;17335;50.720;7.452;2024-03-08T10:02:04;98858.50;;;6.07;100.00
30554;BME280;17335;50.720;7.452;2024-03-08T10:04:32;98872.28;;;6.12;100.00
30554;BME280;17335;50.720;7.452;2024-03-08T10:07:00;98854.88;;;6.08;100.00
30554;BME280;17335;50.720;7.452;2024-03-08T10:09:27;98857.75;;;6.16;100.00
30554;BME280;17335;50.720;7.452;2024-03-08T10:11:57;98862.06;;;6.28;100.00
30554;BME280;17335;50.720;7.452;2024-03-08T10:14:25;98861.91;;;6.30;100.00
30554;BME280;17335;50.720;7.452;2024-03-08T10:16:52;98846.00;;;6.40;100.00
30554;BME280;17335;50.720;7.452;2024-03-08T10:19:20;98841.41;;;6.51;100.00
30554;BME280;17335;50.720;7.452;2024-03-08T10:21:50;98863.63;;;6.52;100.00
30554;BME280;17335;50.720;7.452;2024-03-08T10:24:19;98843.56;;;6.57;100.00
30554;BME280;17335;50.720;7.452;2024-03-08T10:26:46;98840.09;;;6.67;100.00
30554;BME280;17335;50.720;7.452;2024-03-08T10:29:13;98834.00;;;6.76;100.00
30554;BME280;17335;50.720;7.452;2024-03-08T10:31:45;98830.63;;;6.84;100.00
30554;BME280;17335;50.720;7.452;2024-03-08T10:34:12;98829.84;;;6.93;100.00
30554;BME280;17335;50.720;7.452;2024-03-08T10:36:39;98823.69;;;7.02;100.00
30554;BME280;17335;50.720;7.452;2024-03-08T10:39:23;98818.53;;;7.10;100.00
30554;BME280;17335;50.720;7.452;2024-03-08T10:41:57;98828.78;;;7.15;100.00
30554;BME280;17335;50.720;7.452;2024-03-08T10:44:36;98830.75;;;7.13;100.00
30554;BME280;17335;50.720;7.452;2024-03-08T10:47:17;98820.38;;;7.20;100.00
30554;BME280;17335;50.720;7.452;2024-03-08T10:49:54;98821.84;;;7.43;100.00
30554;BME280;17335;50.720;7.452;2024-03-08T10:52:22;98818.47;;;7.51;100.00
30554;BME280;17335;50.720;7.452;2024-03-08T10:54:49;98801.50;;;7.62;100.00
30554;BME280;17335;50.720;7.452;2024-03-08T10:57:18;98791.78;;;7.80;100.00
30554;BME280;17335;50.720;7.452;2024-03-08T10:59:47;98809.94;;;7.77;100.00
30554;BME280;17335;50.720;7.452;2024-03-08T11:02:16;98797.97;;;7.91;100.00
30554;BME280;17335;50.720;7.452;2024-03-08T11:04:48;98799.53;;;7.83;100.00
30554;BME280;17335;50.720;7.452;2024-03-08T11:07:16;98797.97;;;7.91;100.00
30554;BME280;17335;50.720;7.452;2024-03-08T11:09:49;98779.44;;;7.79;100.00
30554;BME280;17335;50.720;7.452;2024-03-08T11:12:20;98771.25;;;8.00;100.00
30554;BME280;17335;50.720;7.452;2024-03-08T11:14:48;98782.22;;;8.07;100.00
30554;BME280;17335;50.720;7.452;2024-03-08T11:20:16;98775.19;;;7.96;100.00
30554;BME280;17335;50.720;7.452;2024-03-08T11:22:54;98762.81;;;8.05;100.00
30554;BME280;17335;50.720;7.452;2024-03-08T11:28:15;98774.47;;;8.23;100.00
30554;BME280;17335;50.720;7.452;2024-03-08T11:31:21;98759.72;;;8.00;100.00
30554;BME280;17335;50.720;7.452;2024-03-08T11:33:35;98754.78;;;7.95;100.00
30554;BME280;17335;50.720;7.452;2024-03-08T11:36:11;98741.44;;;7.95;100.00
30554;BME280;17335;50.720;7.452;2024-03-08T11:38:43;98741.44;;;7.95;100.00
30554;BME280;17335;50.720;7.452;2024-03-08T11:41:20;98740.28;;;8.07;100.00
30554;BME280;17335;50.720;7.452;2024-03-08T11:43:47;98737.19;;;8.12;100.00
30554;BME280;17335;50.720;7.452;2024-03-08T11:46:15;98731.91;;;8.40;100.00
30554;BME280;17335;50.720;7.452;2024-03-08T11:48:44;98736.56;;;8.48;100.00
30554;BME280;17335;50.720;7.452;2024-03-08T11:51:11;98727.84;;;8.36;100.00
30554;BME280;17335;50.720;7.452;2024-03-08T11:53:38;98721.34;;;8.48;100.00
30554;BME280;17335;50.720;7.452;2024-03-08T11:56:12;98715.09;;;8.57;100.00
30554;BME280;17335;50.720;7.452;2024-03-08T11:58:40;98712.25;;;8.69;100.00
30554;BME280;17335;50.720;7.452;2024-03-08T12:01:08;98702.66;;;8.66;100.00
30554;BME280;17335;50.720;7.452;2024-03-08T12:03:41;98701.66;;;8.77;100.00
30554;BME280;17335;50.720;7.452;2024-03-08T12:06:11;98696.88;;;8.71;100.00
30554;BME280;17335;50.720;7.452;2024-03-08T12:08:39;98688.44;;;8.93;100.00
30554;BME280;17335;50.720;7.452;2024-03-08T12:11:06;98692.81;;;9.12;100.00
30554;BME280;17335;50.720;7.452;2024-03-08T12:13:34;98692.13;;;9.10;100.00
30554;BME280;17335;50.720;7.452;2024-03-08T12:16:04;98685.56;;;9.23;100.00
30554;BME280;17335;50.720;7.452;2024-03-08T12:18:36;98685.34;;;9.34;100.00
30554;BME280;17335;50.720;7.452;2024-03-08T12:21:13;98673.56;;;9.45;100.00
30554;BME280;17335;50.720;7.452;2024-03-08T12:23:44;98679.88;;;9.44;100.00
30554;BME280;17335;50.720;7.452;2024-03-08T12:26:14;98680.97;;;9.33;100.00
30554;BME280;17335;50.720;7.452;2024-03-08T12:28:43;98679.00;;;9.17;100.00
30554;BME280;17335;50.720;7.452;2024-03-08T12:31:14;98670.19;;;9.25;100.00
30554;BME280;17335;50.720;7.452;2024-03-08T12:33:51;98674.34;;;9.37;100.00
30554;BME280;17335;50.720;7.452;2024-03-08T12:36:22;98664.53;;;9.46;100.00
30554;BME280;17335;50.720;7.452;2024-03-08T12:38:49;98655.47;;;9.47;100.00
30554;BME280;17335;50.720;7.452;2024-03-08T12:41:16;98664.41;;;9.55;100.00
30554;BME280;17335;50.720;7.452;2024-03-08T12:43:46;98662.66;;;9.64;100.00
30554;BME280;17335;50.720;7.452;2024-03-08T12:46:19;98656.06;;;9.76;100.00
30554;BME280;17335;50.720;7.452;2024-03-08T12:48:53;98660.09;;;9.81;100.00
30554;BME280;17335;50.720;7.452;2024-03-08T12:51:21;98645.13;;;9.70;100.00
30554;BME280;17335;50.720;7.452;2024-03-08T12:53:47;98643.44;;;9.69;100.00
30554;BME280;17335;50.720;7.452;2024-03-08T12:56:29;98637.25;;;9.68;100.00
30554;BME280;17335;50.720;7.452;2024-03-08T12:58:56;98631.22;;;9.74;100.00
30554;BME280;17335;50.720;7.452;2024-03-08T13:01:23;98626.88;;;10.00;100.00
30554;BME280;17335;50.720;7.452;2024-03-08T13:03:50;98627.09;;;10.06;100.00
30554;BME280;17335;50.720;7.452;2024-03-08T13:06:16;98628.19;;;9.69;100.00
30554;BME280;17335;50.720;7.452;2024-03-08T13:08:43;98626.81;;;9.65;100.00
30554;BME280;17335;50.720;7.452;2024-03-08T13:11:10;98620.28;;;9.68;100.00
30554;BME280;17335;50.720;7.452;2024-03-08T13:13:43;98615.22;;;9.83;100.00